x

Central Caribbean - 210 Nm Sse Of Kingston, Jamaica (42058) Wave Buoy

2:50am - Fri 23rd Jun 2017 All times are EST. -5 hours from GMT.

  • Sig Wave height 6.2ft
  • Swell Direction
  • Peak Period 7s
  • Average Period 6s
  • Wind
    16mph, 20mph gusts
  • Sea Temp 83°f
  • Sea Pressure 1011.5mb
  • Central Caribbean - 210 Nm Sse Of Kingston, Jamaica
  • Central Caribbean - 210 Nm Sse Of Kingston, Jamaica

More Historic Weather Station data

Upgrade to MSW Pro to gain access to the past 30 days of data for over 8000 Wavebouys and Weather Stations around the globe.

Join Pro

Comparision Forecast

View Surf forecast
   
Fri 06/23 2:50am 6ft 7s 6s 16 20 mph 1011.5mb 83f
2:40am  -   -   -  16 20 mph 1011.5mb 83f
2:30am  -   -   -  16 18 mph 1011.5mb 83f
2:20am  -   -   -  16 20 mph 1011.6mb 83f
2:10am  -   -   -  16 20 mph 1011.8mb 83f
2:00am  -   -   -  16 20 mph 1011.9mb 83f
1:50am 6ft 7s 6s 16 18 mph 1011.9mb 83f
1:40am  -   -   -  13 16 mph 1012mb 83f
1:30am  -   -   -  13 18 mph 1012.1mb 83f
1:20am  -   -   -  13 18 mph 1012.3mb 83f
1:10am  -   -   -  13 18 mph 1012.4mb 83f
1:00am  -   -   -  13 18 mph 1012.5mb 83f
12:50am 6.5ft 8s 6s 13 18 mph 1012.5mb 83f
12:40am  -   -   -  16 18 mph 1012.6mb 83f
12:30am  -   -   -  16 18 mph 1012.8mb 83f
12:20am  -   -   -  13 20 mph 1012.6mb 83f
12:10am  -   -   -  16 20 mph 1012.8mb 83f
12:00am  -   -   -  16 20 mph 1012.9mb 83f
Thu 06/22 11:50pm 6.5ft 8s 6s 16 22 mph 1012.9mb 83f
11:40pm 6.5ft  -  6s 16 20 mph 1013mb 83f
11:30pm  -   -   -  18 22 mph 1013mb 83f
11:20pm  -   -   -  16 20 mph 1013mb 83f
11:10pm  -   -   -  18 22 mph 1013mb 83f
11:00pm  -   -   -  18 22 mph 1013mb 83f
10:50pm 7ft 8s 6s 18 25 mph 1013mb 83f
10:40pm  -   -   -  20 25 mph 1013mb 83f
10:30pm  -   -   -  18 22 mph 1013mb 83f
10:20pm  -   -   -  18 25 mph 1013mb 83f
10:10pm  -   -   -  20 25 mph 1013mb 83f
10:00pm  -   -   -  20 25 mph 1013mb 83f
9:50pm 7ft 8s 6s 20 25 mph 1013mb 83f
9:40pm  -   -   -  20 25 mph 1013mb 83f
9:30pm  -   -   -  20 25 mph 1012.9mb 83f
9:20pm  -   -   -  20 25 mph 1012.8mb 83f
9:10pm  -   -   -  20 25 mph 1012.6mb 83f
9:00pm  -   -   -  20 25 mph 1012.5mb 83f
8:50pm 7ft 8s 6s 20 25 mph 1012.5mb 83f
8:40pm 7ft  -  6s 18 25 mph 1012.5mb 83f
8:30pm  -   -   -  16 20 mph 1012.4mb 83f
8:20pm  -   -   -  13 20 mph 1012.5mb 83f
8:10pm  -   -   -  16 22 mph 1012.5mb -
8:00pm  -   -   -  20 25 mph 1012.3mb 83f
7:50pm 7ft 8s  -  18 25 mph 1012.1mb 83f
7:40pm  -   -   -  20 25 mph 1012mb 83f
7:30pm  -   -   -  20 27 mph 1011.8mb 83f
7:20pm  -   -   -  18 22 mph 1011.6mb 83f
7:10pm  -   -   -  20 25 mph 1011.5mb 83f
7:00pm  -   -   -  20 25 mph 1011.5mb 83f
6:50pm 7ft 8s 6s 20 25 mph 1011.4mb 83f
6:40pm  -   -   -  18 22 mph 1011.3mb 83f
6:30pm  -   -   -  20 22 mph 1011.3mb 83f
6:20pm  -   -   -  18 22 mph 1011.1mb 83f
6:10pm  -   -   -  18 25 mph 1011mb 83f
6:00pm  -   -   -  18 22 mph 1010.9mb 83f
5:50pm 7ft 8s 6s 20 25 mph 1010.9mb 83f
5:40pm 7ft  -  6s 20 25 mph 1010.9mb 83f
5:30pm  -   -   -  20 25 mph 1010.8mb 83f
5:20pm  -   -   -  20 25 mph 1010.8mb 83f
5:10pm  -   -   -  20 22 mph 1010.9mb 83f
5:00pm  -   -   -  20 25 mph 1010.9mb 83f
4:50pm 8ft 8s 6s 20 25 mph 1010.9mb 83f
4:40pm 8ft  -  6s 20 27 mph 1010.8mb 83f
4:30pm  -   -   -  22 27 mph 1010.9mb 83f
4:20pm  -   -   -  22 27 mph 1010.9mb 83f
4:10pm  -   -   -  22 27 mph 1010.9mb 83f
4:00pm  -   -   -  20 27 mph 1010.8mb 83f
3:50pm 7ft 8s 6s 22 29 mph 1011mb 83f
3:40pm 7ft  -  6s 22 27 mph 1011mb 83f
3:30pm  -   -   -  22 27 mph 1011mb 83f
3:20pm  -   -   -  20 25 mph 1011mb 83f
3:10pm  -   -   -  20 25 mph 1011.1mb 83f
3:00pm  -   -   -  20 25 mph 1011.1mb 83f
2:50pm 8ft 8s 6s 20 27 mph 1011.1mb 83f
2:40pm 8ft  -  6s 20 25 mph 1011.3mb 83f
2:30pm  -   -   -  20 25 mph 1011.4mb 83f
2:20pm  -   -   -  20 27 mph 1011.4mb 83f
2:10pm  -   -   -  20 25 mph 1011.3mb 83f
2:00pm  -   -   -  20 25 mph 1011.4mb -
1:50pm 9ft 8s 6s 22 27 mph 1011.4mb 83f
1:40pm 9ft  -  6s 20 27 mph 1011.5mb 83f
1:30pm  -   -   -  22 29 mph 1011.5mb 83f
1:20pm  -   -   -  22 29 mph 1011.5mb 83f
1:10pm  -   -   -  22 29 mph 1011.5mb 83f
1:00pm  -   -   -  22 29 mph 1011.5mb 83f
12:50pm 8.5ft 8s 6s 22 29 mph 1011.6mb 83f
12:40pm 8.5ft  -  6s 22 27 mph 1011.6mb 83f
12:30pm  -   -   -  22 29 mph 1011.6mb 83f
12:20pm  -   -   -  22 29 mph 1011.6mb 83f
12:10pm  -   -   -  22 31 mph 1011.6mb 83f
12:00pm  -   -   -  22 29 mph 1011.8mb 83f
11:50am 8.5ft 9s 6s 22 29 mph 1011.9mb 83f
11:40am  -   -   -  22 29 mph 1012mb 83f
11:30am  -   -   -  22 29 mph 1012mb 83f
11:20am  -   -   -  22 27 mph 1012mb 83f
11:10am  -   -   -  22 27 mph 1012mb 83f
11:00am  -   -   -  22 27 mph 1012.1mb 83f
10:50am 8.5ft 9s 6s 22 27 mph 1012.1mb 83f
10:40am 8.5ft  -  6s 22 29 mph 1012.3mb 83f
10:30am  -   -   -  25 29 mph 1012.4mb 83f
10:20am  -   -   -  25 31 mph 1012.5mb 83f
10:10am  -   -   -  25 31 mph 1012.5mb 83f
10:00am  -   -   -  22 27 mph 1012.5mb 83f
9:50am 9ft 8s 6s 22 27 mph 1012.5mb 83f
9:40am 9ft  -  6s 25 29 mph 1012.5mb 83f
9:30am  -   -   -  25 29 mph 1012.5mb 83f
9:20am  -   -   -  25 29 mph 1012.5mb 83f
9:10am  -   -   -  27 31 mph 1012.5mb 83f
9:00am  -   -   -  25 29 mph 1012.5mb 83f
8:50am 9ft 9s 6s 25 29 mph 1012.5mb 83f
8:40am  -   -   -  22 27 mph 1012.5mb 83f
8:30am  -   -   -  22 29 mph 1012.5mb 83f
8:20am  -   -   -  25 31 mph 1012.5mb 83f
8:10am  -   -   -  25 29 mph 1012.5mb 83f
8:00am  -   -   -  22 29 mph 1012.3mb 83f
7:50am 9ft 9s 6s 22 29 mph 1012.3mb 83f
7:40am 9ft  -  6s 25 31 mph 1012mb 83f
7:30am  -   -   -  22 29 mph 1012mb 83f
7:20am  -   -   -  22 27 mph 1012mb 83f
7:10am  -   -   -  22 29 mph 1012mb 83f
7:00am  -   -   -  22 27 mph 1012mb 83f
6:50am 10ft 8s 7s 22 29 mph 1012mb 83f
6:40am 10ft  -  7s 22 29 mph 1011.8mb 83f
6:30am  -   -   -  22 31 mph 1011.8mb 83f
6:20am  -   -   -  22 31 mph 1011.6mb 83f
6:10am  -   -   -  25 31 mph 1011.5mb 83f
6:00am  -   -   -  25 31 mph 1011.4mb 83f
5:50am 10ft 9s 6s 25 31 mph 1011.4mb 83f
5:40am 10ft  -  6s 27 34 mph 1011.3mb 83f
5:30am  -   -   -  25 31 mph 1011.1mb 83f
5:20am  -   -   -  25 31 mph 1011mb 83f
5:10am  -   -   -  25 31 mph 1011mb 83f
5:00am  -   -   -  25 31 mph 1010.9mb 83f
4:50am 9.5ft 9s 7s 25 31 mph 1010.9mb 83f
4:40am 9.5ft  -  7s 25 31 mph 1010.8mb 83f
4:30am  -   -   -  25 29 mph 1010.8mb 83f
4:20am  -   -   -  25 31 mph 1010.9mb 83f
4:10am  -   -   -  25 31 mph 1010.9mb 83f
4:00am  -   -   -  25 29 mph 1011mb 83f
3:50am 10ft 8s 7s 25 29 mph 1011mb 83f
3:40am 10ft  -  7s 25 31 mph 1010.9mb 83f
3:30am  -   -   -  25 31 mph 1010.9mb 83f
3:20am  -   -   -  25 29 mph 1010.9mb 83f
3:10am  -   -   -  25 31 mph 1010.9mb 83f
3:00am  -   -   -  22 29 mph 1010.9mb 83f
2:50am 10ft 9s 7s 22 29 mph 1010.8mb 83f
2:40am  -   -   -  22 29 mph 1010.6mb 83f
2:30am  -   -   -  22 31 mph 1010.9mb 83f
2:20am  -   -   -  22 29 mph 1011mb 83f
2:10am  -   -   -  22 31 mph 1011mb 83f
2:00am  -   -   -  25 34 mph 1011mb 83f
1:50am 10ft 8s 6s 22 29 mph 1011.3mb 83f
1:40am  -   -   -  22 29 mph 1011.4mb 83f
1:30am  -   -   -  22 29 mph 1011.5mb 83f
1:20am  -   -   -  22 29 mph 1011.5mb 83f
1:10am  -   -   -  25 31 mph 1011.4mb 83f
1:00am  -   -   -  27 31 mph 1011.1mb 83f
12:50am 11ft 10s 7s 27 31 mph 1011.3mb 83f
12:40am  -   -   -  25 34 mph 1011.4mb 83f
12:30am  -   -   -  27 31 mph 1011.5mb 83f
12:20am  -   -   -  25 31 mph 1011.5mb 83f
12:10am  -   -   -  25 31 mph 1011.6mb 83f
12:00am  -   -   -  27 34 mph 1011.6mb 83f
Wed 06/21 11:50pm 10ft 9s 7s 25 36 mph 1011.8mb 83f
11:40pm  -   -   -  27 34 mph 1011.9mb 83f
11:30pm  -   -   -  27 31 mph 1012mb 83f
11:20pm  -   -   -  25 31 mph 1012.1mb 83f
11:10pm  -   -   -  25 31 mph 1012.1mb 83f
11:00pm  -   -   -  25 31 mph 1012mb 83f
10:50pm 11ft 10s 7s 27 34 mph 1012.1mb 83f
10:40pm 11ft  -  7s 27 34 mph 1012mb 83f
10:30pm  -   -   -  27 34 mph 1012mb 83f
10:20pm  -   -   -  27 34 mph 1012mb 83f
10:10pm  -   -   -  25 31 mph 1012.1mb 83f
10:00pm  -   -   -  25 31 mph 1012.3mb 83f
9:50pm 11.5ft 10s 7s 22 27 mph 1012.1mb 83f
9:40pm  -   -   -  25 31 mph 1012.3mb 83f
9:30pm  -   -   -  20 29 mph 1012.1mb 83f
9:20pm  -   -   -  20 27 mph 1012.1mb 83f
9:10pm  -   -   -  25 31 mph 1012mb 83f
9:00pm  -   -   -  25 31 mph 1011.9mb 83f
8:50pm 10.5ft 11s 7s 20 27 mph 1012mb 83f
8:40pm  -   -   -  18 22 mph 1012.1mb 83f
8:30pm  -   -   -  20 27 mph 1012.3mb 83f
8:20pm  -   -   -  18 27 mph 1012mb 83f
8:10pm  -   -   -  16 20 mph 1011.8mb 83f
8:00pm  -   -   -  20 29 mph 1011.6mb 83f
7:50pm 11ft 11s 7s 22 29 mph 1011.4mb 83f
7:40pm 11ft  -  7s 22 27 mph 1011.4mb 83f
7:30pm  -   -   -  22 29 mph 1011.1mb 83f
7:20pm  -   -   -  18 27 mph 1011.3mb 83f
7:10pm  -   -   -  20 25 mph 1011mb 83f
7:00pm  -   -   -  20 27 mph 1011mb 83f
6:50pm 12ft 10s 7s 22 27 mph 1011mb 83f
6:40pm  -   -   -  22 27 mph 1011mb 83f
6:30pm  -   -   -  25 31 mph 1011mb 83f
6:20pm  -   -   -  25 34 mph 1010.6mb 83f
6:10pm  -   -   -  27 34 mph 1011mb 83f
6:00pm  -   -   -  27 34 mph 1010.5mb 83f
5:50pm 14ft 10s 8s 27 34 mph 1010.3mb 83f
5:40pm  -   -   -  27 36 mph 1010.4mb 83f
5:30pm  -   -   -  29 38 mph 1010.1mb -
5:20pm  -   -   -  31 38 mph 1010mb 83f
5:10pm  -   -   -  31 40 mph 1009.9mb 83f
5:00pm  -   -   -  29 38 mph 1010mb 83f
4:50pm 13ft 11s 7s 29 38 mph 1009.6mb 83f
4:40pm 13ft  -  7s 34 40 mph 1009.4mb 83f
4:30pm  -   -   -  31 38 mph 1009.3mb 83f
4:20pm  -   -   -  29 38 mph 1009.1mb 83f
4:10pm  -   -   -  29 36 mph 1009.5mb 83f
4:00pm  -   -   -  27 38 mph 1009.9mb 83f
3:50pm 13ft 9s 7s 29 36 mph 1009.5mb 83f
3:40pm  -   -   -  25 31 mph 1009.4mb 83f
3:30pm  -   -   -  25 31 mph 1009.5mb 83f
3:20pm  -   -   -  25 34 mph 1009.8mb 83f
3:10pm  -   -   -  27 34 mph 1009.6mb 83f
3:00pm  -   -   -  29 38 mph 1009.9mb 83f
2:50pm 10ft 8s 6s 31 40 mph 1009.9mb 83f
2:40pm  -   -   -  31 38 mph 1010mb 83f
2:30pm  -   -   -  31 38 mph 1009.9mb 83f
2:20pm  -   -   -  29 36 mph 1010.1mb 83f
2:10pm  -   -   -  27 36 mph 1010.4mb 83f
2:00pm  -   -   -  29 34 mph 1010.5mb 83f
1:50pm 11ft 9s 6s 27 34 mph 1010.8mb 83f
1:40pm  -   -   -  27 34 mph 1010.4mb 83f
1:30pm  -   -   -  25 31 mph 1010.4mb 83f
1:20pm  -   -   -  27 36 mph 1010.4mb 83f
1:10pm  -   -   -  27 34 mph 1010.6mb 83f
1:00pm  -   -   -  29 36 mph 1011mb 83f
12:50pm 9.5ft 8s 6s 27 36 mph 1011.1mb 83f
12:40pm 9.5ft  -  6s 29 38 mph 1011.1mb 83f
12:30pm  -   -   -  29 38 mph 1011.1mb 83f
12:20pm  -   -   -  31 40 mph 1011.4mb 83f
12:10pm  -   -   -  29 36 mph 1011.5mb 83f
12:00pm  -   -   -  29 34 mph 1011.5mb 83f
11:50am 10ft 9s 6s 27 34 mph 1011.8mb 83f
11:40am 10ft  -  6s 27 34 mph 1011.9mb 83f
11:30am  -   -   -  25 31 mph 1012mb 83f
11:20am  -   -   -  25 31 mph 1012mb 83f
11:10am  -   -   -  27 36 mph 1012mb 83f
11:00am  -   -   -  27 34 mph 1011.8mb 83f
10:50am 9ft 8s 6s 25 31 mph 1012mb 83f
10:40am  -   -   -  27 34 mph 1012mb 83f
10:30am  -   -   -  27 34 mph 1012mb 83f
10:20am  -   -   -  27 31 mph 1012.1mb 83f
10:10am  -   -   -  27 31 mph 1012.3mb 83f
10:00am  -   -   -  27 34 mph 1012mb 83f
9:50am 9ft 8s 6s 27 34 mph 1012mb 83f
9:40am  -   -   -  25 31 mph 1012mb 83f
9:30am  -   -   -  25 29 mph 1011.9mb 83f
9:20am  -   -   -  25 31 mph 1011.9mb 83f
9:10am  -   -   -  22 29 mph 1012mb 83f
9:00am  -   -   -  25 29 mph 1012mb 83f
8:50am 8ft 9s 6s 25 29 mph 1012mb 83f
8:40am  -   -   -  25 31 mph 1011.9mb 83f
8:30am  -   -   -  25 29 mph 1011.9mb 83f
8:20am  -   -   -  29 38 mph 1011.8mb -
8:10am  -   -   -  27 34 mph 1011.8mb 83f
8:00am  -   -   -  27 34 mph 1011.6mb 83f
7:50am 8ft 8s 6s 27 31 mph 1011.6mb 83f
7:40am 8ft  -  6s 25 29 mph 1011.8mb 83f
7:30am  -   -   -  27 31 mph 1011.6mb 83f
7:20am  -   -   -  27 34 mph 1011.5mb 83f
7:10am  -   -   -  27 34 mph 1011.5mb -
7:00am  -   -   -  25 31 mph 1011.6mb 83f
6:50am 8.5ft 8s 6s 27 31 mph 1011.5mb -
6:40am  -   -   -  22 29 mph 1011.6mb 83f
6:30am  -   -   -  25 29 mph 1011.5mb 83f
6:20am  -   -   -  25 29 mph 1011.3mb 83f
6:10am  -   -   -  22 29 mph 1011mb 83f
6:00am  -   -   -  22 29 mph 1011mb 83f
5:50am 9ft 8s 6s 22 27 mph 1011.1mb 83f
5:40am  -   -   -  22 29 mph 1011.1mb 83f
5:30am  -   -   -  25 29 mph 1011mb 83f
5:20am  -   -   -  25 29 mph 1010.9mb 83f
5:10am  -   -   -  22 29 mph 1010.8mb 83f
5:00am  -   -   -  22 29 mph 1010.5mb 83f
4:50am 9ft 8s 6s 22 31 mph 1010.5mb 83f
4:40am  -   -   -  22 27 mph 1010.6mb 83f
4:30am  -   -   -  25 29 mph 1010.5mb 83f
4:20am  -   -   -  25 29 mph 1010.5mb 83f
4:10am  -   -   -  22 29 mph 1010.5mb 83f
4:00am  -   -   -  25 29 mph 1010.5mb 83f
3:50am 8ft 8s 6s 25 31 mph 1010.6mb 83f
3:40am  -   -   -  25 31 mph 1010.6mb 83f
3:30am  -   -   -  25 31 mph 1010.6mb 83f
3:20am  -   -   -  22 29 mph 1010.6mb 83f
3:10am  -   -   -  25 29 mph 1010.6mb 83f
3:00am  -   -   -  25 29 mph 1010.6mb 83f
2:50am 9ft 8s 6s 22 29 mph 1010.9mb 83f
2:40am 9ft  -  6s 25 31 mph 1011mb 83f
2:30am  -   -   -  25 31 mph 1011mb 83f
2:20am  -   -   -  25 31 mph 1011mb 83f
2:10am  -   -   -  25 31 mph 1011.1mb 83f
2:00am  -   -   -  25 31 mph 1011.1mb 83f
1:50am 10ft 8s 6s 25 31 mph 1011.1mb 83f
1:40am 10ft  -  6s 22 29 mph 1011.3mb 83f
1:30am  -   -   -  25 31 mph 1011.3mb 83f
1:20am  -   -   -  22 29 mph 1011.1mb 83f
1:10am  -   -   -  22 27 mph 1011.4mb 83f
1:00am  -   -   -  25 31 mph 1011.4mb 83f
12:50am 9ft 8s 6s 25 29 mph 1011.4mb 83f
12:40am  -   -   -  22 29 mph 1011.5mb 83f
12:30am  -   -   -  25 29 mph 1011.8mb 83f
12:20am  -   -   -  25 29 mph 1011.6mb 83f
12:10am  -   -   -  25 29 mph 1011.8mb 83f
12:00am  -   -   -  25 31 mph 1012mb 83f
Tue 06/20 11:50pm 9ft 8s 6s 25 31 mph 1012mb 83f
11:40pm  -   -   -  27 34 mph 1012.3mb 83f
11:30pm  -   -   -  25 31 mph 1012.5mb 83f
11:20pm  -   -   -  27 34 mph 1012.6mb 83f
11:10pm  -   -   -  27 31 mph 1012.5mb 83f
11:00pm  -   -   -  27 34 mph 1012.6mb 83f
10:50pm 10ft 8s 6s 27 34 mph 1012.9mb 83f
10:40pm 10ft  -  6s 27 34 mph 1012.8mb 83f
10:30pm  -   -   -  27 36 mph 1012.6mb -
10:20pm  -   -   -  27 34 mph 1012.9mb 83f
10:10pm  -   -   -  27 34 mph 1012.6mb 83f
10:00pm  -   -   -  27 36 mph 1012.5mb 83f
9:50pm 9ft 8s 6s 27 34 mph 1012.6mb 83f
9:40pm  -   -   -  27 34 mph 1012.5mb 83f
9:30pm  -   -   -  29 34 mph 1012.5mb 83f
9:20pm  -   -   -  29 36 mph 1012.4mb 83f
9:10pm  -   -   -  29 38 mph 1012mb 83f
9:00pm  -   -   -  29 38 mph 1012mb 83f
8:50pm 9ft 8s 6s 27 34 mph 1011.8mb 83f
8:40pm  -   -   -  27 34 mph 1011.5mb 83f
8:30pm  -   -   -  27 34 mph 1011.5mb 83f
8:20pm  -   -   -  27 36 mph 1011.3mb 83f
8:10pm  -   -   -  27 36 mph 1011.1mb 83f
8:00pm  -   -   -  27 36 mph 1011.1mb 83f
7:50pm 9ft 8s 6s 27 36 mph 1011mb 83f
7:40pm  -   -   -  27 34 mph 1011mb 83f
7:30pm  -   -   -  27 34 mph 1011.1mb 83f
7:20pm  -   -   -  27 34 mph 1011mb 83f
7:10pm  -   -   -  27 34 mph 1011mb 83f
7:00pm  -   -   -  25 34 mph 1010.8mb 83f
6:50pm 8ft 8s 6s 27 34 mph 1010.9mb 83f
6:40pm  -   -   -  27 34 mph 1010.6mb 83f
6:30pm  -   -   -  27 31 mph 1010.5mb 83f
6:20pm  -   -   -  27 34 mph 1010.4mb 83f
6:10pm  -   -   -  27 34 mph 1010.4mb 83f
6:00pm  -   -   -  25 34 mph 1010.1mb 83f
5:50pm 8ft 8s 6s 25 29 mph 1010.1mb 83f
5:40pm  -   -   -  25 31 mph 1010mb 83f
5:30pm  -   -   -  25 31 mph 1010mb 83f
5:20pm  -   -   -  25 29 mph 1010mb 83f
5:10pm  -   -   -  25 31 mph 1009.9mb 83f
5:00pm  -   -   -  25 34 mph 1009.9mb 83f
4:50pm 8ft 8s 6s 27 34 mph 1009.9mb 83f
4:40pm 8ft  -  6s 27 34 mph 1009.8mb 83f
4:30pm  -   -   -  25 31 mph 1010mb 83f
4:20pm  -   -   -  25 34 mph 1010mb 83f
4:10pm  -   -   -  25 31 mph 1009.8mb 83f
4:00pm  -   -   -  22 27 mph 1010mb 83f
3:50pm 8.5ft 8s 6s 22 27 mph 1010mb 83f
3:40pm  -   -   -  20 27 mph 1010mb 83f
3:30pm  -   -   -  25 29 mph 1010mb 83f
3:20pm  -   -   -  25 31 mph 1010.1mb 83f
3:10pm  -   -   -  25 31 mph 1010.3mb 83f
3:00pm  -   -   -  25 31 mph 1010.5mb 83f
2:50pm 8ft 8s 6s 25 29 mph 1010.4mb 83f
2:40pm  -   -   -  22 29 mph 1010.5mb 83f
2:30pm  -   -   -  25 31 mph 1010.6mb 83f
2:20pm  -   -   -  25 31 mph 1010.6mb 83f
2:10pm  -   -   -  25 29 mph 1010.9mb 83f
2:00pm  -   -   -  25 34 mph 1011mb 83f
1:50pm 8ft 8s 6s 27 34 mph 1011.1mb 83f
1:40pm  -   -   -  25 29 mph 1011.4mb 83f
1:30pm  -   -   -  25 31 mph 1011.5mb 83f
1:20pm  -   -   -  22 31 mph 1011.6mb 83f
1:10pm  -   -   -  25 29 mph 1011.8mb 83f
1:00pm  -   -   -  25 29 mph 1011.9mb 83f
12:50pm 8ft 8s 6s 22 29 mph 1012mb 83f
12:40pm  -   -   -  22 29 mph 1012mb 83f
12:30pm  -   -   -  25 31 mph 1012.3mb 83f
12:20pm  -   -   -  22 27 mph 1012.4mb 83f
12:10pm  -   -   -  20 27 mph 1012.6mb 83f
12:00pm  -   -   -  22 27 mph 1012.8mb 83f
11:50am 8.5ft 8s 6s 22 27 mph 1012.9mb 83f
11:40am  -   -   -  22 27 mph 1013mb 83f
11:30am  -   -   -  22 27 mph 1013mb 83f
11:20am  -   -   -  20 27 mph 1013mb 83f
11:10am  -   -   -  22 27 mph 1013mb 83f
11:00am  -   -   -  22 29 mph 1013mb 83f
10:50am 8ft 8s 6s 22 29 mph 1013.1mb 83f
10:40am 8ft  -  6s 22 29 mph 1013.1mb 83f
10:30am  -   -   -  25 31 mph 1013mb 83f
10:20am  -   -   -  25 31 mph 1013mb 83f
10:10am  -   -   -  22 29 mph 1013mb 83f
10:00am  -   -   -  20 29 mph 1013mb 83f
9:50am 8ft 8s 6s 22 27 mph 1013mb 83f
9:40am  -   -   -  22 27 mph 1013.1mb 83f
9:30am  -   -   -  20 25 mph 1013.1mb 83f
9:20am  -   -   -  20 27 mph 1013.1mb 83f
9:10am  -   -   -  22 27 mph 1013.1mb 83f
9:00am  -   -   -  20 27 mph 1013.3mb 83f
8:50am 8ft 8s 6s 22 27 mph 1013mb 83f
8:40am 8ft  -  6s 22 27 mph 1013mb 83f
8:30am  -   -   -  20 27 mph 1013mb 83f
8:20am  -   -   -  22 27 mph 1012.9mb 83f
8:10am  -   -   -  22 27 mph 1012.9mb 83f
8:00am  -   -   -  22 27 mph 1012.6mb 83f
7:50am 8.5ft 8s 6s 22 29 mph 1012.5mb 83f
7:40am  -   -   -  22 27 mph 1012.5mb 83f
7:30am  -   -   -  22 29 mph 1012.4mb 83f
7:20am  -   -   -  22 29 mph 1012.3mb 83f
7:10am  -   -   -  25 29 mph 1012mb 83f
7:00am  -   -   -  25 31 mph 1012.1mb 83f
6:50am 8ft 8s 6s 25 31 mph 1012mb 83f
6:40am  -   -   -  25 31 mph 1012.1mb 83f
6:30am  -   -   -  25 34 mph 1012mb 83f
6:20am  -   -   -  25 31 mph 1011.8mb 83f
6:10am  -   -   -  25 34 mph 1011.6mb 83f
6:00am  -   -   -  27 31 mph 1011.5mb 83f
5:50am 8ft 8s 6s 27 34 mph 1011.4mb 83f
5:40am  -   -   -  27 34 mph 1011.1mb 83f
5:30am  -   -   -  27 34 mph 1011.1mb 83f
5:20am  -   -   -  27 34 mph 1010.9mb 83f
5:10am  -   -   -  29 34 mph 1011mb 83f
5:00am  -   -   -  27 34 mph 1010.8mb 83f
4:50am 8.5ft 8s 6s 29 36 mph 1010.9mb 83f
4:40am 8.5ft  -  6s 27 34 mph 1010.9mb 83f
4:30am  -   -   -  25 31 mph 1010.8mb 83f
4:20am  -   -   -  25 31 mph 1010.6mb 83f
4:10am  -   -   -  25 34 mph 1010.6mb 83f
4:00am  -   -   -  27 34 mph 1010.6mb 83f
3:50am 7.5ft 8s 6s 27 34 mph 1010.5mb 83f
3:40am  -   -   -  27 34 mph 1010.6mb 83f
3:30am  -   -   -  27 34 mph 1010.6mb 83f
3:20am  -   -   -  25 34 mph 1010.6mb 83f
3:10am  -   -   -  25 34 mph 1010.8mb 83f
3:00am  -   -   -  25 34 mph 1010.8mb 83f
2:50am 7ft 8s 5s 27 31 mph 1010.8mb 83f
2:40am  -   -   -  25 31 mph 1010.8mb 83f
2:30am  -   -   -  27 34 mph 1010.9mb 83f
2:20am  -   -   -  27 31 mph 1010.9mb 83f
2:10am  -   -   -  25 34 mph 1010.9mb 83f
2:00am  -   -   -  25 31 mph 1011mb 83f
1:50am 7ft 8s 5s 25 29 mph 1011mb 83f
1:40am 7ft  -  5s 25 29 mph 1011.3mb 83f
1:30am  -   -   -  27 31 mph 1011.4mb 83f
1:20am  -   -   -  25 31 mph 1011.5mb 83f
1:10am  -   -   -  25 31 mph 1011.5mb 83f
1:00am  -   -   -  25 31 mph 1011.5mb 83f
12:50am 7ft 8s 6s 25 29 mph 1011.8mb 83f
12:40am  -   -   -  22 27 mph 1012mb 83f
12:30am  -   -   -  25 29 mph 1012mb 83f
12:20am  -   -   -  22 27 mph 1012.3mb 83f
12:10am  -   -   -  25 31 mph 1012.5mb 83f
12:00am  -   -   -  22 29 mph 1012.5mb 83f
Mon 06/19 11:50pm 6.5ft 8s 5s 25 29 mph 1012.6mb 83f
11:40pm  -   -   -  25 31 mph 1012.6mb 83f
11:30pm  -   -   -  25 34 mph 1012.9mb 83f
11:20pm  -   -   -  25 31 mph 1013mb 83f
11:10pm  -   -   -  22 31 mph 1013mb 83f
11:00pm  -   -   -  22 29 mph 1013mb 83f
10:50pm 7ft 8s 5s 20 27 mph 1013mb 83f
10:40pm  -   -   -  22 29 mph 1013.3mb 83f
10:30pm  -   -   -  25 29 mph 1013mb 83f
10:20pm  -   -   -  25 31 mph 1013mb 83f
10:10pm  -   -   -  25 31 mph 1013mb 83f
10:00pm  -   -   -  22 27 mph 1013mb 83f
9:50pm 7ft 8s 5s 22 29 mph 1013mb 83f
9:40pm  -   -   -  25 29 mph 1012.9mb 83f
9:30pm  -   -   -  22 29 mph 1012.8mb 83f
9:20pm  -   -   -  25 29 mph 1012.5mb 83f
9:10pm  -   -   -  22 29 mph 1012.5mb 83f
9:00pm  -   -   -  22 29 mph 1012.3mb 83f
8:50pm 6ft 8s 6s 22 29 mph 1012.1mb 83f
8:40pm  -   -   -  22 29 mph 1012mb 83f
8:30pm  -   -   -  25 29 mph 1011.9mb 83f
8:20pm  -   -   -  22 29 mph 1011.9mb 83f
8:10pm  -   -   -  25 29 mph 1011.9mb 83f
8:00pm  -   -   -  22 29 mph 1011.8mb 83f
7:50pm 7ft 8s 6s 22 29 mph 1011.6mb 83f
7:40pm  -   -   -  22 27 mph 1011.6mb 83f
7:30pm  -   -   -  20 27 mph 1011.5mb 83f
7:20pm  -   -   -  22 27 mph 1011.3mb 83f
7:10pm  -   -   -  22 27 mph 1011.3mb 83f
7:00pm  -   -   -  20 25 mph 1011.1mb 83f
6:50pm 7ft 8s 6s 20 25 mph 1011mb 83f
6:40pm  -   -   -  20 25 mph 1010.9mb 83f
6:30pm  -   -   -  20 25 mph 1010.9mb 83f
6:20pm  -   -   -  20 25 mph 1010.8mb 83f
6:10pm  -   -   -  22 27 mph 1010.6mb 83f
6:00pm  -   -   -  20 27 mph 1010.5mb 83f
5:50pm 6.5ft 7s 6s 22 27 mph 1010.5mb 83f
5:40pm  -   -   -  20 27 mph 1010.5mb 83f
5:30pm  -   -   -  22 27 mph 1010.5mb 83f
5:20pm  -   -   -  20 27 mph 1010.5mb 83f
5:10pm  -   -   -  22 25 mph 1010.5mb 83f
5:00pm  -   -   -  22 27 mph 1010.4mb 83f
4:50pm 7ft 7s 6s 22 27 mph 1010.5mb 83f
4:40pm 7ft  -  6s 22 25 mph 1010.4mb 83f
4:30pm  -   -   -  20 27 mph 1010.3mb 83f
4:20pm  -   -   -  20 27 mph 1010.3mb 83f
4:10pm  -   -   -  20 27 mph 1010.4mb 83f
4:00pm  -   -   -  20 25 mph 1010.3mb 83f
3:50pm 7ft 8s 6s 20 27 mph 1010.3mb 83f
3:40pm 7ft  -  6s 20 27 mph 1010.4mb 83f
3:30pm  -   -   -  20 25 mph 1010.4mb 83f
3:20pm  -   -   -  20 25 mph 1010.4mb 83f
3:10pm  -   -   -  20 25 mph 1010.5mb 83f
3:00pm  -   -   -  20 25 mph 1010.6mb 83f
2:50pm 7ft 7s 6s 20 25 mph 1010.6mb 83f
2:40pm 7ft  -  6s 20 25 mph 1010.9mb 83f
2:30pm  -   -   -  20 25 mph 1010.9mb 83f
2:20pm  -   -   -  20 25 mph 1010.9mb 83f
2:10pm  -   -   -  20 25 mph 1011mb 83f
2:00pm  -   -   -  20 25 mph 1011mb 83f
1:50pm 6.5ft 8s 5s 20 25 mph 1011.1mb 83f
1:40pm 6.5ft  -  5s 20 27 mph 1011.3mb 83f
1:30pm  -   -   -  20 27 mph 1011.5mb 83f
1:20pm  -   -   -  22 27 mph 1011.5mb 83f
1:10pm  -   -   -  22 27 mph 1011.6mb 83f
1:00pm  -   -   -  22 27 mph 1011.8mb 83f
12:50pm 7ft 8s 6s 20 27 mph 1012mb 83f
12:40pm 7ft  -  6s 22 27 mph 1012mb 83f
12:30pm  -   -   -  20 27 mph 1012mb 83f
12:20pm  -   -   -  20 27 mph 1012mb 83f
12:10pm  -   -   -  22 29 mph 1012.1mb 83f
12:00pm  -   -   -  20 25 mph 1012.3mb 83f
11:50am 6ft 8s 5s 20 25 mph 1012.1mb 83f
11:40am  -   -   -  20 25 mph 1012.3mb 83f
11:30am  -   -   -  22 27 mph 1012.4mb 83f
11:20am  -   -   -  22 27 mph 1012.5mb 83f
11:10am  -   -   -  20 27 mph 1012.5mb 83f
11:00am  -   -   -  22 29 mph 1012.5mb 83f
10:50am 6.5ft 8s 5s 22 29 mph 1012.6mb 83f
10:40am 6.5ft  -  5s 22 29 mph 1012.6mb 83f
10:30am  -   -   -  22 29 mph 1012.8mb 83f
10:20am  -   -   -  22 29 mph 1012.9mb 83f
10:10am  -   -   -  25 31 mph 1012.9mb 83f
10:00am  -   -   -  25 31 mph 1012.9mb 83f
9:50am 7ft 7s 5s 25 29 mph 1012.6mb 83f
9:40am  -   -   -  25 29 mph 1012.6mb 83f
9:30am  -   -   -  25 31 mph 1012.5mb 83f
9:20am  -   -   -  25 31 mph 1012.5mb 83f
9:10am  -   -   -  25 29 mph 1012.6mb 83f
9:00am  -   -   -  25 29 mph 1012.6mb 83f